sensor_id;sensor_type;location;lat;lon;timestamp;P1;durP1;ratioP1;P2;durP2;ratioP2
36663;SDS011;53333;51.976;20.144;2022-11-15T00:00:05;62.85;;;27.73;;
36663;SDS011;53333;51.976;20.144;2022-11-15T00:02:58;58.63;;;24.90;;
36663;SDS011;53333;51.976;20.144;2022-11-15T00:05:50;66.28;;;25.50;;
36663;SDS011;53333;51.976;20.144;2022-11-15T00:08:43;62.45;;;26.08;;
36663;SDS011;53333;51.976;20.144;2022-11-15T00:11:37;64.78;;;27.17;;
36663;SDS011;53333;51.976;20.144;2022-11-15T00:14:29;69.90;;;26.20;;
36663;SDS011;53333;51.976;20.144;2022-11-15T00:17:21;71.53;;;28.55;;
36663;SDS011;53333;51.976;20.144;2022-11-15T00:20:14;69.35;;;25.92;;
36663;SDS011;53333;51.976;20.144;2022-11-15T00:23:07;70.03;;;28.38;;
36663;SDS011;53333;51.976;20.144;2022-11-15T00:25:59;69.30;;;27.98;;
36663;SDS011;53333;51.976;20.144;2022-11-15T00:28:53;64.95;;;27.95;;
36663;SDS011;53333;51.976;20.144;2022-11-15T00:31:45;74.60;;;28.33;;
36663;SDS011;53333;51.976;20.144;2022-11-15T00:34:37;70.65;;;28.15;;
36663;SDS011;53333;51.976;20.144;2022-11-15T00:37:30;66.88;;;26.45;;
36663;SDS011;53333;51.976;20.144;2022-11-15T00:40:22;69.15;;;29.15;;
36663;SDS011;53333;51.976;20.144;2022-11-15T00:43:14;69.68;;;28.60;;
36663;SDS011;53333;51.976;20.144;2022-11-15T00:46:07;68.45;;;26.75;;
36663;SDS011;53333;51.976;20.144;2022-11-15T00:48:59;72.22;;;29.80;;
36663;SDS011;53333;51.976;20.144;2022-11-15T00:51:51;67.85;;;28.52;;
36663;SDS011;53333;51.976;20.144;2022-11-15T00:54:43;68.72;;;26.88;;
36663;SDS011;53333;51.976;20.144;2022-11-15T00:57:35;72.88;;;30.42;;
36663;SDS011;53333;51.976;20.144;2022-11-15T01:00:27;68.43;;;27.45;;
36663;SDS011;53333;51.976;20.144;2022-11-15T01:03:20;68.47;;;28.40;;
36663;SDS011;53333;51.976;20.144;2022-11-15T01:06:12;79.00;;;30.10;;
36663;SDS011;53333;51.976;20.144;2022-11-15T01:09:04;78.05;;;29.13;;
36663;SDS011;53333;51.976;20.144;2022-11-15T01:11:56;76.03;;;30.30;;
36663;SDS011;53333;51.976;20.144;2022-11-15T01:14:49;75.47;;;30.70;;
36663;SDS011;53333;51.976;20.144;2022-11-15T01:17:41;71.55;;;29.15;;
36663;SDS011;53333;51.976;20.144;2022-11-15T01:20:38;78.93;;;28.88;;
36663;SDS011;53333;51.976;20.144;2022-11-15T01:23:31;68.65;;;30.45;;
36663;SDS011;53333;51.976;20.144;2022-11-15T01:26:23;68.28;;;27.00;;
36663;SDS011;53333;51.976;20.144;2022-11-15T01:29:16;65.82;;;26.10;;
36663;SDS011;53333;51.976;20.144;2022-11-15T01:32:08;65.20;;;26.92;;
36663;SDS011;53333;51.976;20.144;2022-11-15T01:35:00;73.18;;;26.95;;
36663;SDS011;53333;51.976;20.144;2022-11-15T01:37:53;74.45;;;29.02;;
36663;SDS011;53333;51.976;20.144;2022-11-15T01:40:45;76.75;;;30.08;;
36663;SDS011;53333;51.976;20.144;2022-11-15T01:43:38;73.80;;;28.10;;
36663;SDS011;53333;51.976;20.144;2022-11-15T01:46:31;70.82;;;29.10;;
36663;SDS011;53333;51.976;20.144;2022-11-15T01:49:26;77.10;;;29.80;;
36663;SDS011;53333;51.976;20.144;2022-11-15T01:52:20;69.00;;;27.58;;
36663;SDS011;53333;51.976;20.144;2022-11-15T01:55:17;74.05;;;29.27;;
36663;SDS011;53333;51.976;20.144;2022-11-15T01:58:12;67.63;;;27.75;;
36663;SDS011;53333;51.976;20.144;2022-11-15T02:01:05;72.43;;;29.90;;
36663;SDS011;53333;51.976;20.144;2022-11-15T02:03:57;79.70;;;30.67;;
36663;SDS011;53333;51.976;20.144;2022-11-15T02:06:52;76.70;;;28.02;;
36663;SDS011;53333;51.976;20.144;2022-11-15T02:09:44;69.95;;;28.48;;
36663;SDS011;53333;51.976;20.144;2022-11-15T02:12:39;69.78;;;28.92;;
36663;SDS011;53333;51.976;20.144;2022-11-15T02:15:34;76.03;;;29.40;;
36663;SDS011;53333;51.976;20.144;2022-11-15T02:18:32;72.40;;;28.77;;
36663;SDS011;53333;51.976;20.144;2022-11-15T02:21:31;74.07;;;29.42;;
36663;SDS011;53333;51.976;20.144;2022-11-15T02:31:22;71.22;;;27.10;;
36663;SDS011;53333;51.976;20.144;2022-11-15T02:34:21;74.53;;;29.50;;
36663;SDS011;53333;51.976;20.144;2022-11-15T02:37:23;77.10;;;28.73;;
36663;SDS011;53333;51.976;20.144;2022-11-15T02:40:34;70.03;;;27.98;;
36663;SDS011;53333;51.976;20.144;2022-11-15T02:43:38;71.30;;;29.35;;
36663;SDS011;53333;51.976;20.144;2022-11-15T02:46:49;67.78;;;26.52;;
36663;SDS011;53333;51.976;20.144;2022-11-15T02:50:03;73.93;;;30.50;;
36663;SDS011;53333;51.976;20.144;2022-11-15T02:52:59;76.05;;;28.70;;
36663;SDS011;53333;51.976;20.144;2022-11-15T02:55:51;66.97;;;27.75;;
36663;SDS011;53333;51.976;20.144;2022-11-15T02:58:49;76.80;;;27.02;;
36663;SDS011;53333;51.976;20.144;2022-11-15T03:01:58;56.20;;;25.20;;
36663;SDS011;53333;51.976;20.144;2022-11-15T03:05:04;65.05;;;24.58;;
36663;SDS011;53333;51.976;20.144;2022-11-15T03:08:08;70.00;;;27.50;;
36663;SDS011;53333;51.976;20.144;2022-11-15T03:11:07;68.25;;;30.48;;
36663;SDS011;53333;51.976;20.144;2022-11-15T03:14:02;70.75;;;27.33;;
36663;SDS011;53333;51.976;20.144;2022-11-15T03:17:02;70.25;;;25.65;;
36663;SDS011;53333;51.976;20.144;2022-11-15T03:20:04;69.82;;;25.88;;
36663;SDS011;53333;51.976;20.144;2022-11-15T03:23:00;78.20;;;28.55;;
36663;SDS011;53333;51.976;20.144;2022-11-15T03:25:56;72.97;;;26.10;;
36663;SDS011;53333;51.976;20.144;2022-11-15T03:28:52;63.83;;;25.60;;
36663;SDS011;53333;51.976;20.144;2022-11-15T03:31:48;65.50;;;27.38;;
36663;SDS011;53333;51.976;20.144;2022-11-15T03:34:49;76.40;;;27.20;;
36663;SDS011;53333;51.976;20.144;2022-11-15T03:37:45;74.40;;;26.58;;
36663;SDS011;53333;51.976;20.144;2022-11-15T03:40:42;74.55;;;25.25;;
36663;SDS011;53333;51.976;20.144;2022-11-15T03:43:39;64.70;;;25.88;;
36663;SDS011;53333;51.976;20.144;2022-11-15T03:46:39;75.40;;;26.58;;
36663;SDS011;53333;51.976;20.144;2022-11-15T03:49:39;73.25;;;26.23;;
36663;SDS011;53333;51.976;20.144;2022-11-15T03:52:38;76.25;;;26.33;;
36663;SDS011;53333;51.976;20.144;2022-11-15T03:55:31;70.80;;;26.33;;
36663;SDS011;53333;51.976;20.144;2022-11-15T03:58:24;77.47;;;27.17;;
36663;SDS011;53333;51.976;20.144;2022-11-15T04:01:17;75.85;;;27.77;;
36663;SDS011;53333;51.976;20.144;2022-11-15T04:04:09;72.55;;;23.48;;
36663;SDS011;53333;51.976;20.144;2022-11-15T04:07:01;59.65;;;23.20;;
36663;SDS011;53333;51.976;20.144;2022-11-15T04:09:55;62.03;;;24.00;;
36663;SDS011;53333;51.976;20.144;2022-11-15T04:12:56;65.72;;;23.80;;
36663;SDS011;53333;51.976;20.144;2022-11-15T04:15:48;66.13;;;24.05;;
36663;SDS011;53333;51.976;20.144;2022-11-15T04:18:40;73.28;;;23.67;;
36663;SDS011;53333;51.976;20.144;2022-11-15T04:21:32;75.32;;;24.50;;
36663;SDS011;53333;51.976;20.144;2022-11-15T04:24:42;67.25;;;23.25;;
36663;SDS011;53333;51.976;20.144;2022-11-15T04:27:35;62.40;;;23.83;;
36663;SDS011;53333;51.976;20.144;2022-11-15T04:30:27;64.63;;;24.02;;
36663;SDS011;53333;51.976;20.144;2022-11-15T04:33:20;67.43;;;24.60;;
36663;SDS011;53333;51.976;20.144;2022-11-15T04:36:13;67.45;;;24.55;;
36663;SDS011;53333;51.976;20.144;2022-11-15T04:39:28;66.10;;;23.33;;
36663;SDS011;53333;51.976;20.144;2022-11-15T04:42:20;63.03;;;23.55;;
36663;SDS011;53333;51.976;20.144;2022-11-15T04:45:14;68.32;;;24.30;;
36663;SDS011;53333;51.976;20.144;2022-11-15T04:48:06;69.40;;;25.52;;
36663;SDS011;53333;51.976;20.144;2022-11-15T04:50:58;80.38;;;25.05;;
36663;SDS011;53333;51.976;20.144;2022-11-15T04:53:50;73.63;;;25.23;;
36663;SDS011;53333;51.976;20.144;2022-11-15T04:56:42;68.65;;;24.80;;
36663;SDS011;53333;51.976;20.144;2022-11-15T04:59:35;71.50;;;24.83;;
36663;SDS011;53333;51.976;20.144;2022-11-15T05:02:28;73.65;;;23.75;;
36663;SDS011;53333;51.976;20.144;2022-11-15T05:05:40;69.53;;;22.27;;
36663;SDS011;53333;51.976;20.144;2022-11-15T05:08:31;61.22;;;21.52;;
36663;SDS011;53333;51.976;20.144;2022-11-15T05:11:24;74.43;;;25.23;;
36663;SDS011;53333;51.976;20.144;2022-11-15T05:14:17;74.47;;;24.83;;
36663;SDS011;53333;51.976;20.144;2022-11-15T05:17:09;71.57;;;23.33;;
36663;SDS011;53333;51.976;20.144;2022-11-15T05:20:03;71.78;;;25.67;;
36663;SDS011;53333;51.976;20.144;2022-11-15T05:22:56;75.82;;;24.52;;
36663;SDS011;53333;51.976;20.144;2022-11-15T05:25:48;75.47;;;24.58;;
36663;SDS011;53333;51.976;20.144;2022-11-15T05:28:40;73.32;;;25.05;;
36663;SDS011;53333;51.976;20.144;2022-11-15T05:31:31;64.55;;;23.92;;
36663;SDS011;53333;51.976;20.144;2022-11-15T05:34:23;63.55;;;23.85;;
36663;SDS011;53333;51.976;20.144;2022-11-15T05:37:18;61.22;;;22.58;;
36663;SDS011;53333;51.976;20.144;2022-11-15T05:40:10;71.10;;;24.97;;
36663;SDS011;53333;51.976;20.144;2022-11-15T05:43:02;70.38;;;23.88;;
36663;SDS011;53333;51.976;20.144;2022-11-15T05:45:56;70.82;;;24.23;;
36663;SDS011;53333;51.976;20.144;2022-11-15T05:48:49;79.43;;;23.92;;
36663;SDS011;53333;51.976;20.144;2022-11-15T05:51:43;68.53;;;22.88;;
36663;SDS011;53333;51.976;20.144;2022-11-15T05:54:38;66.93;;;24.10;;
36663;SDS011;53333;51.976;20.144;2022-11-15T05:57:31;70.85;;;24.08;;
36663;SDS011;53333;51.976;20.144;2022-11-15T06:00:23;74.60;;;24.02;;
36663;SDS011;53333;51.976;20.144;2022-11-15T06:03:15;68.22;;;24.33;;
36663;SDS011;53333;51.976;20.144;2022-11-15T06:06:07;70.50;;;25.50;;
36663;SDS011;53333;51.976;20.144;2022-11-15T06:09:05;82.60;;;27.27;;
36663;SDS011;53333;51.976;20.144;2022-11-15T06:11:59;73.10;;;25.73;;
36663;SDS011;53333;51.976;20.144;2022-11-15T06:14:51;73.18;;;25.02;;
36663;SDS011;53333;51.976;20.144;2022-11-15T06:17:43;74.45;;;23.13;;
36663;SDS011;53333;51.976;20.144;2022-11-15T06:20:36;63.70;;;25.42;;
36663;SDS011;53333;51.976;20.144;2022-11-15T06:23:32;82.22;;;26.27;;
36663;SDS011;53333;51.976;20.144;2022-11-15T06:26:25;62.17;;;23.70;;
36663;SDS011;53333;51.976;20.144;2022-11-15T06:29:18;67.30;;;25.13;;
36663;SDS011;53333;51.976;20.144;2022-11-15T06:32:10;66.18;;;24.58;;
36663;SDS011;53333;51.976;20.144;2022-11-15T06:35:02;65.75;;;23.95;;
36663;SDS011;53333;51.976;20.144;2022-11-15T06:37:55;71.30;;;25.25;;
36663;SDS011;53333;51.976;20.144;2022-11-15T06:40:53;73.00;;;25.15;;
36663;SDS011;53333;51.976;20.144;2022-11-15T06:43:45;72.70;;;26.02;;
36663;SDS011;53333;51.976;20.144;2022-11-15T06:46:39;67.10;;;23.67;;
36663;SDS011;53333;51.976;20.144;2022-11-15T06:49:32;62.10;;;23.15;;
36663;SDS011;53333;51.976;20.144;2022-11-15T06:52:24;65.15;;;22.85;;
36663;SDS011;53333;51.976;20.144;2022-11-15T06:55:16;65.88;;;25.13;;
36663;SDS011;53333;51.976;20.144;2022-11-15T06:58:11;64.10;;;24.58;;
36663;SDS011;53333;51.976;20.144;2022-11-15T07:01:18;62.22;;;23.88;;
36663;SDS011;53333;51.976;20.144;2022-11-15T07:04:12;66.47;;;25.13;;
36663;SDS011;53333;51.976;20.144;2022-11-15T07:07:04;65.00;;;24.90;;
36663;SDS011;53333;51.976;20.144;2022-11-15T07:09:56;65.20;;;25.27;;
36663;SDS011;53333;51.976;20.144;2022-11-15T07:12:48;64.78;;;24.73;;
36663;SDS011;53333;51.976;20.144;2022-11-15T07:15:40;56.35;;;24.35;;
36663;SDS011;53333;51.976;20.144;2022-11-15T07:18:33;64.50;;;22.92;;
36663;SDS011;53333;51.976;20.144;2022-11-15T07:21:27;65.78;;;26.30;;
36663;SDS011;53333;51.976;20.144;2022-11-15T07:24:19;65.03;;;24.55;;
36663;SDS011;53333;51.976;20.144;2022-11-15T07:27:11;64.22;;;27.35;;
36663;SDS011;53333;51.976;20.144;2022-11-15T07:30:04;61.50;;;23.48;;
36663;SDS011;53333;51.976;20.144;2022-11-15T07:32:57;65.43;;;23.58;;
36663;SDS011;53333;51.976;20.144;2022-11-15T07:35:50;53.65;;;23.17;;
36663;SDS011;53333;51.976;20.144;2022-11-15T07:38:44;63.25;;;24.40;;
36663;SDS011;53333;51.976;20.144;2022-11-15T07:41:36;53.30;;;23.58;;
36663;SDS011;53333;51.976;20.144;2022-11-15T07:44:29;53.17;;;21.73;;
36663;SDS011;53333;51.976;20.144;2022-11-15T07:47:21;59.22;;;23.85;;
36663;SDS011;53333;51.976;20.144;2022-11-15T07:50:13;53.53;;;23.80;;
36663;SDS011;53333;51.976;20.144;2022-11-15T07:53:05;68.28;;;30.17;;
36663;SDS011;53333;51.976;20.144;2022-11-15T07:56:00;62.97;;;25.05;;
36663;SDS011;53333;51.976;20.144;2022-11-15T07:58:52;66.67;;;25.13;;
36663;SDS011;53333;51.976;20.144;2022-11-15T08:01:44;57.90;;;25.00;;
36663;SDS011;53333;51.976;20.144;2022-11-15T08:04:37;57.55;;;24.00;;
36663;SDS011;53333;51.976;20.144;2022-11-15T08:07:29;54.75;;;24.45;;
36663;SDS011;53333;51.976;20.144;2022-11-15T08:10:25;57.67;;;24.20;;
36663;SDS011;53333;51.976;20.144;2022-11-15T08:13:19;59.30;;;24.63;;
36663;SDS011;53333;51.976;20.144;2022-11-15T08:16:12;57.30;;;23.80;;
36663;SDS011;53333;51.976;20.144;2022-11-15T08:19:04;57.58;;;24.38;;
36663;SDS011;53333;51.976;20.144;2022-11-15T08:21:56;53.33;;;23.50;;
36663;SDS011;53333;51.976;20.144;2022-11-15T08:24:48;56.40;;;24.60;;
36663;SDS011;53333;51.976;20.144;2022-11-15T08:27:40;58.45;;;26.42;;
36663;SDS011;53333;51.976;20.144;2022-11-15T08:30:37;59.22;;;23.40;;
36663;SDS011;53333;51.976;20.144;2022-11-15T08:33:32;49.30;;;22.17;;
36663;SDS011;53333;51.976;20.144;2022-11-15T08:36:24;54.60;;;24.77;;
36663;SDS011;53333;51.976;20.144;2022-11-15T08:39:26;56.97;;;25.10;;
36663;SDS011;53333;51.976;20.144;2022-11-15T08:42:18;52.75;;;23.88;;
36663;SDS011;53333;51.976;20.144;2022-11-15T08:45:10;53.03;;;24.55;;
36663;SDS011;53333;51.976;20.144;2022-11-15T08:48:04;54.83;;;24.00;;
36663;SDS011;53333;51.976;20.144;2022-11-15T08:50:56;51.15;;;23.90;;
36663;SDS011;53333;51.976;20.144;2022-11-15T08:53:48;55.45;;;24.70;;
36663;SDS011;53333;51.976;20.144;2022-11-15T08:56:41;57.38;;;24.27;;
36663;SDS011;53333;51.976;20.144;2022-11-15T08:59:33;56.33;;;24.52;;
36663;SDS011;53333;51.976;20.144;2022-11-15T09:02:25;56.70;;;24.80;;
36663;SDS011;53333;51.976;20.144;2022-11-15T09:05:19;59.25;;;24.95;;
36663;SDS011;53333;51.976;20.144;2022-11-15T09:08:11;57.08;;;24.52;;
36663;SDS011;53333;51.976;20.144;2022-11-15T09:11:24;53.05;;;24.95;;
36663;SDS011;53333;51.976;20.144;2022-11-15T09:14:16;54.83;;;23.75;;
36663;SDS011;53333;51.976;20.144;2022-11-15T09:17:08;55.65;;;27.30;;
36663;SDS011;53333;51.976;20.144;2022-11-15T09:20:01;52.20;;;24.27;;
36663;SDS011;53333;51.976;20.144;2022-11-15T09:22:57;60.55;;;28.35;;
36663;SDS011;53333;51.976;20.144;2022-11-15T09:25:51;55.13;;;25.75;;
36663;SDS011;53333;51.976;20.144;2022-11-15T09:28:43;49.67;;;23.77;;
36663;SDS011;53333;51.976;20.144;2022-11-15T09:31:35;52.67;;;26.00;;
36663;SDS011;53333;51.976;20.144;2022-11-15T09:34:29;53.10;;;26.63;;
36663;SDS011;53333;51.976;20.144;2022-11-15T09:37:22;53.10;;;25.15;;
36663;SDS011;53333;51.976;20.144;2022-11-15T09:40:16;52.70;;;24.90;;
36663;SDS011;53333;51.976;20.144;2022-11-15T09:43:20;57.10;;;25.33;;
36663;SDS011;53333;51.976;20.144;2022-11-15T09:46:21;55.40;;;24.48;;
36663;SDS011;53333;51.976;20.144;2022-11-15T09:49:23;52.30;;;26.40;;
36663;SDS011;53333;51.976;20.144;2022-11-15T09:52:27;76.85;;;38.08;;
36663;SDS011;53333;51.976;20.144;2022-11-15T09:55:00;55.35;;;26.38;;
36663;SDS011;53333;51.976;20.144;2022-11-15T10:00:15;54.72;;;26.50;;
36663;SDS011;53333;51.976;20.144;2022-11-15T10:03:12;53.47;;;28.40;;
36663;SDS011;53333;51.976;20.144;2022-11-15T10:05:48;53.40;;;26.70;;
36663;SDS011;53333;51.976;20.144;2022-11-15T10:11:22;53.50;;;26.50;;
36663;SDS011;53333;51.976;20.144;2022-11-15T10:14:11;57.05;;;27.13;;
36663;SDS011;53333;51.976;20.144;2022-11-15T10:17:14;55.08;;;27.88;;
36663;SDS011;53333;51.976;20.144;2022-11-15T10:20:10;52.47;;;26.90;;
36663;SDS011;53333;51.976;20.144;2022-11-15T10:22:49;53.55;;;27.55;;
36663;SDS011;53333;51.976;20.144;2022-11-15T10:25:25;57.53;;;28.80;;
36663;SDS011;53333;51.976;20.144;2022-11-15T10:28:01;56.83;;;29.67;;
36663;SDS011;53333;51.976;20.144;2022-11-15T10:30:44;62.15;;;29.20;;
36663;SDS011;53333;51.976;20.144;2022-11-15T10:33:27;55.55;;;28.15;;
36663;SDS011;53333;51.976;20.144;2022-11-15T10:36:17;54.50;;;27.58;;
36663;SDS011;53333;51.976;20.144;2022-11-15T10:38:54;53.53;;;27.77;;
36663;SDS011;53333;51.976;20.144;2022-11-15T10:41:34;51.97;;;27.98;;
36663;SDS011;53333;51.976;20.144;2022-11-15T10:44:11;52.65;;;27.35;;
36663;SDS011;53333;51.976;20.144;2022-11-15T10:47:06;50.42;;;27.13;;
36663;SDS011;53333;51.976;20.144;2022-11-15T10:50:25;52.97;;;28.98;;
36663;SDS011;53333;51.976;20.144;2022-11-15T10:53:01;55.42;;;29.65;;
36663;SDS011;53333;51.976;20.144;2022-11-15T10:55:35;55.80;;;29.55;;
36663;SDS011;53333;51.976;20.144;2022-11-15T10:58:19;51.50;;;28.00;;
36663;SDS011;53333;51.976;20.144;2022-11-15T11:00:55;53.90;;;28.75;;
36663;SDS011;53333;51.976;20.144;2022-11-15T11:03:43;53.85;;;28.98;;
36663;SDS011;53333;51.976;20.144;2022-11-15T11:06:30;53.03;;;27.73;;
36663;SDS011;53333;51.976;20.144;2022-11-15T11:09:22;52.80;;;29.15;;
36663;SDS011;53333;51.976;20.144;2022-11-15T11:12:02;50.45;;;28.65;;
36663;SDS011;53333;51.976;20.144;2022-11-15T11:14:37;53.42;;;29.27;;
36663;SDS011;53333;51.976;20.144;2022-11-15T11:17:13;53.95;;;28.77;;
36663;SDS011;53333;51.976;20.144;2022-11-15T11:20:00;46.25;;;27.30;;
36663;SDS011;53333;51.976;20.144;2022-11-15T11:22:42;47.93;;;28.83;;
36663;SDS011;53333;51.976;20.144;2022-11-15T11:25:33;44.50;;;27.15;;
36663;SDS011;53333;51.976;20.144;2022-11-15T11:28:13;40.80;;;27.63;;
36663;SDS011;53333;51.976;20.144;2022-11-15T11:30:57;45.25;;;28.15;;
36663;SDS011;53333;51.976;20.144;2022-11-15T11:33:42;41.75;;;28.40;;
36663;SDS011;53333;51.976;20.144;2022-11-15T11:36:24;46.05;;;29.23;;
36663;SDS011;53333;51.976;20.144;2022-11-15T11:39:05;39.88;;;27.10;;
36663;SDS011;53333;51.976;20.144;2022-11-15T11:41:59;39.00;;;26.58;;
36663;SDS011;53333;51.976;20.144;2022-11-15T11:44:43;38.90;;;27.08;;
36663;SDS011;53333;51.976;20.144;2022-11-15T11:47:24;38.72;;;27.45;;
36663;SDS011;53333;51.976;20.144;2022-11-15T11:50:10;36.45;;;26.58;;
36663;SDS011;53333;51.976;20.144;2022-11-15T11:52:52;39.90;;;28.55;;
36663;SDS011;53333;51.976;20.144;2022-11-15T11:55:35;37.13;;;25.60;;
36663;SDS011;53333;51.976;20.144;2022-11-15T11:58:16;39.72;;;27.15;;
36663;SDS011;53333;51.976;20.144;2022-11-15T12:00:55;36.60;;;27.40;;
36663;SDS011;53333;51.976;20.144;2022-11-15T12:03:44;40.50;;;27.85;;
36663;SDS011;53333;51.976;20.144;2022-11-15T12:06:22;35.90;;;26.83;;
36663;SDS011;53333;51.976;20.144;2022-11-15T12:09:07;34.92;;;25.92;;
36663;SDS011;53333;51.976;20.144;2022-11-15T12:11:52;35.80;;;26.23;;
36663;SDS011;53333;51.976;20.144;2022-11-15T12:14:32;37.65;;;28.00;;
36663;SDS011;53333;51.976;20.144;2022-11-15T12:17:10;36.83;;;26.98;;
36663;SDS011;53333;51.976;20.144;2022-11-15T12:19:46;37.33;;;27.02;;
36663;SDS011;53333;51.976;20.144;2022-11-15T12:22:23;35.85;;;27.40;;
36663;SDS011;53333;51.976;20.144;2022-11-15T12:25:13;35.80;;;26.85;;
36663;SDS011;53333;51.976;20.144;2022-11-15T12:27:51;38.08;;;25.52;;
36663;SDS011;53333;51.976;20.144;2022-11-15T12:30:37;36.03;;;26.35;;
36663;SDS011;53333;51.976;20.144;2022-11-15T12:33:32;38.53;;;27.83;;
36663;SDS011;53333;51.976;20.144;2022-11-15T12:36:10;37.10;;;27.10;;
36663;SDS011;53333;51.976;20.144;2022-11-15T12:38:53;36.42;;;27.27;;
36663;SDS011;53333;51.976;20.144;2022-11-15T12:41:30;38.63;;;27.40;;
36663;SDS011;53333;51.976;20.144;2022-11-15T12:44:04;35.00;;;26.30;;
36663;SDS011;53333;51.976;20.144;2022-11-15T12:47:00;37.80;;;26.35;;
36663;SDS011;53333;51.976;20.144;2022-11-15T12:49:43;38.08;;;27.02;;
36663;SDS011;53333;51.976;20.144;2022-11-15T12:52:23;35.60;;;25.45;;
36663;SDS011;53333;51.976;20.144;2022-11-15T12:54:58;34.08;;;25.85;;
36663;SDS011;53333;51.976;20.144;2022-11-15T12:57:43;37.25;;;25.73;;
36663;SDS011;53333;51.976;20.144;2022-11-15T13:03:26;38.13;;;27.02;;
36663;SDS011;53333;51.976;20.144;2022-11-15T13:06:05;35.90;;;26.73;;
36663;SDS011;53333;51.976;20.144;2022-11-15T13:09:02;41.03;;;26.90;;
36663;SDS011;53333;51.976;20.144;2022-11-15T13:11:47;37.28;;;27.00;;
36663;SDS011;53333;51.976;20.144;2022-11-15T13:17:33;39.75;;;26.50;;
36663;SDS011;53333;51.976;20.144;2022-11-15T13:23:02;39.10;;;26.80;;
36663;SDS011;53333;51.976;20.144;2022-11-15T13:28:45;44.58;;;28.95;;
36663;SDS011;53333;51.976;20.144;2022-11-15T13:34:23;42.55;;;28.58;;
36663;SDS011;53333;51.976;20.144;2022-11-15T13:37:27;41.88;;;30.02;;
36663;SDS011;53333;51.976;20.144;2022-11-15T13:40:16;45.40;;;29.90;;
36663;SDS011;53333;51.976;20.144;2022-11-15T13:42:56;52.45;;;33.25;;
36663;SDS011;53333;51.976;20.144;2022-11-15T13:45:30;47.65;;;33.75;;
36663;SDS011;53333;51.976;20.144;2022-11-15T13:48:05;45.92;;;30.50;;
36663;SDS011;53333;51.976;20.144;2022-11-15T13:50:41;43.67;;;30.38;;
36663;SDS011;53333;51.976;20.144;2022-11-15T13:53:15;49.47;;;31.52;;
36663;SDS011;53333;51.976;20.144;2022-11-15T13:55:48;45.92;;;31.27;;
36663;SDS011;53333;51.976;20.144;2022-11-15T13:58:23;50.08;;;32.50;;
36663;SDS011;53333;51.976;20.144;2022-11-15T14:01:00;56.45;;;34.60;;
36663;SDS011;53333;51.976;20.144;2022-11-15T14:03:38;53.83;;;33.33;;
36663;SDS011;53333;51.976;20.144;2022-11-15T14:06:20;59.72;;;37.83;;
36663;SDS011;53333;51.976;20.144;2022-11-15T14:11:57;51.15;;;31.08;;
36663;SDS011;53333;51.976;20.144;2022-11-15T14:14:31;48.55;;;31.25;;
36663;SDS011;53333;51.976;20.144;2022-11-15T14:19:53;46.17;;;26.70;;
36663;SDS011;53333;51.976;20.144;2022-11-15T14:22:27;44.47;;;26.42;;
36663;SDS011;53333;51.976;20.144;2022-11-15T14:25:14;46.17;;;26.08;;
36663;SDS011;53333;51.976;20.144;2022-11-15T14:31:06;49.90;;;27.42;;
36663;SDS011;53333;51.976;20.144;2022-11-15T14:33:46;52.67;;;29.17;;
36663;SDS011;53333;51.976;20.144;2022-11-15T14:36:21;59.45;;;30.08;;
36663;SDS011;53333;51.976;20.144;2022-11-15T14:38:55;72.13;;;38.28;;
36663;SDS011;53333;51.976;20.144;2022-11-15T14:41:29;74.10;;;39.28;;
36663;SDS011;53333;51.976;20.144;2022-11-15T14:44:05;68.88;;;33.90;;
36663;SDS011;53333;51.976;20.144;2022-11-15T14:46:45;67.35;;;33.80;;
36663;SDS011;53333;51.976;20.144;2022-11-15T14:49:19;69.20;;;35.03;;
36663;SDS011;53333;51.976;20.144;2022-11-15T14:51:57;69.80;;;33.63;;
36663;SDS011;53333;51.976;20.144;2022-11-15T14:54:33;65.43;;;34.05;;
36663;SDS011;53333;51.976;20.144;2022-11-15T14:57:06;74.25;;;34.97;;
36663;SDS011;53333;51.976;20.144;2022-11-15T14:59:40;59.58;;;31.83;;
36663;SDS011;53333;51.976;20.144;2022-11-15T15:02:16;51.00;;;27.83;;
36663;SDS011;53333;51.976;20.144;2022-11-15T15:04:51;51.33;;;27.27;;
36663;SDS011;53333;51.976;20.144;2022-11-15T15:07:30;54.58;;;26.95;;
36663;SDS011;53333;51.976;20.144;2022-11-15T15:10:04;51.30;;;26.30;;
36663;SDS011;53333;51.976;20.144;2022-11-15T15:12:58;50.58;;;26.10;;
36663;SDS011;53333;51.976;20.144;2022-11-15T15:15:32;51.42;;;26.92;;
36663;SDS011;53333;51.976;20.144;2022-11-15T15:18:07;53.78;;;27.63;;
36663;SDS011;53333;51.976;20.144;2022-11-15T15:20:43;55.25;;;26.63;;
36663;SDS011;53333;51.976;20.144;2022-11-15T15:23:21;56.22;;;28.63;;
36663;SDS011;53333;51.976;20.144;2022-11-15T15:25:57;52.00;;;27.05;;
36663;SDS011;53333;51.976;20.144;2022-11-15T15:28:31;48.67;;;25.40;;
36663;SDS011;53333;51.976;20.144;2022-11-15T15:31:08;54.60;;;27.67;;
36663;SDS011;53333;51.976;20.144;2022-11-15T15:33:42;53.97;;;27.67;;
36663;SDS011;53333;51.976;20.144;2022-11-15T15:38:51;55.67;;;28.20;;
36663;SDS011;53333;51.976;20.144;2022-11-15T15:41:25;54.53;;;28.15;;
36663;SDS011;53333;51.976;20.144;2022-11-15T15:46:32;60.65;;;28.48;;
36663;SDS011;53333;51.976;20.144;2022-11-15T15:49:08;60.15;;;31.00;;
36663;SDS011;53333;51.976;20.144;2022-11-15T15:51:42;69.35;;;34.35;;
36663;SDS011;53333;51.976;20.144;2022-11-15T15:54:17;63.78;;;33.10;;
36663;SDS011;53333;51.976;20.144;2022-11-15T15:56:51;63.53;;;32.90;;
36663;SDS011;53333;51.976;20.144;2022-11-15T15:59:26;74.22;;;36.42;;
36663;SDS011;53333;51.976;20.144;2022-11-15T16:02:00;88.47;;;35.58;;
36663;SDS011;53333;51.976;20.144;2022-11-15T16:04:33;76.05;;;36.42;;
36663;SDS011;53333;51.976;20.144;2022-11-15T16:07:07;73.40;;;34.33;;
36663;SDS011;53333;51.976;20.144;2022-11-15T16:09:53;72.07;;;36.53;;
36663;SDS011;53333;51.976;20.144;2022-11-15T16:12:36;69.05;;;36.15;;
36663;SDS011;53333;51.976;20.144;2022-11-15T16:15:11;78.00;;;36.47;;
36663;SDS011;53333;51.976;20.144;2022-11-15T16:17:47;80.30;;;37.15;;
36663;SDS011;53333;51.976;20.144;2022-11-15T16:20:26;76.32;;;35.05;;
36663;SDS011;53333;51.976;20.144;2022-11-15T16:23:04;72.80;;;34.38;;
36663;SDS011;53333;51.976;20.144;2022-11-15T16:25:45;68.22;;;31.00;;
36663;SDS011;53333;51.976;20.144;2022-11-15T16:28:20;71.60;;;30.67;;
36663;SDS011;53333;51.976;20.144;2022-11-15T16:30:59;68.75;;;30.88;;
36663;SDS011;53333;51.976;20.144;2022-11-15T16:33:35;60.47;;;29.70;;
36663;SDS011;53333;51.976;20.144;2022-11-15T16:36:14;65.20;;;29.95;;
36663;SDS011;53333;51.976;20.144;2022-11-15T16:39:02;65.85;;;30.42;;
36663;SDS011;53333;51.976;20.144;2022-11-15T16:41:38;64.47;;;31.58;;
36663;SDS011;53333;51.976;20.144;2022-11-15T16:44:11;68.82;;;31.25;;
36663;SDS011;53333;51.976;20.144;2022-11-15T16:46:45;69.95;;;35.80;;
36663;SDS011;53333;51.976;20.144;2022-11-15T16:49:22;66.97;;;30.17;;
36663;SDS011;53333;51.976;20.144;2022-11-15T16:51:56;61.67;;;30.88;;